Bilma, Niger
Current Conditions -  °F | °C
As of 6:15 PM on Sunday 21 Dec 2014 (Local Time) from KQAZ Reporting Station
Clear Clear  
Wind Chill: 73°   Ceiling: Unl
Heat Index: 73°   Visibility: 6mi
Dew Point: 30°   Wind: 10mph
Humidity: 20%   Direction: 130°SE
Pressure: 30.02"   Gusts: NA
Location:  18.69°N, 12.94°E
Report Text: KQAZ 211715Z AUTO 13009KT 9999 CLR 23/M01 A3002 RMK CDP03565 CLR
Loading
Personal Weather Stations






























Interactive Weather Map New forecast layout! Learn more

10-Day Weather Forecast

Advertisements
Track Severe Weather on mobile